sensor_id;sensor_type;location;lat;lon;timestamp;P1;durP1;ratioP1;P2;durP2;ratioP2
7199;SDS011;3641;49.082;8.200;2024-03-22T00:00:57;16.58;;;9.77;;
7199;SDS011;3641;49.082;8.200;2024-03-22T00:03:22;15.45;;;10.07;;
7199;SDS011;3641;49.082;8.200;2024-03-22T00:05:48;17.20;;;10.38;;
7199;SDS011;3641;49.082;8.200;2024-03-22T00:08:14;20.45;;;11.13;;
7199;SDS011;3641;49.082;8.200;2024-03-22T00:10:40;15.48;;;8.90;;
7199;SDS011;3641;49.082;8.200;2024-03-22T00:13:06;17.13;;;8.52;;
7199;SDS011;3641;49.082;8.200;2024-03-22T00:15:32;17.75;;;10.23;;
7199;SDS011;3641;49.082;8.200;2024-03-22T00:17:59;15.13;;;9.73;;
7199;SDS011;3641;49.082;8.200;2024-03-22T00:20:25;14.57;;;9.48;;
7199;SDS011;3641;49.082;8.200;2024-03-22T00:22:51;13.90;;;9.27;;
7199;SDS011;3641;49.082;8.200;2024-03-22T00:25:17;15.25;;;9.70;;
7199;SDS011;3641;49.082;8.200;2024-03-22T00:27:43;16.42;;;9.65;;
7199;SDS011;3641;49.082;8.200;2024-03-22T00:30:09;12.77;;;8.95;;
7199;SDS011;3641;49.082;8.200;2024-03-22T00:32:35;18.15;;;9.02;;
7199;SDS011;3641;49.082;8.200;2024-03-22T00:35:03;16.55;;;10.00;;
7199;SDS011;3641;49.082;8.200;2024-03-22T00:37:29;15.45;;;10.13;;
7199;SDS011;3641;49.082;8.200;2024-03-22T00:39:55;16.08;;;10.23;;
7199;SDS011;3641;49.082;8.200;2024-03-22T00:42:20;15.35;;;9.80;;
7199;SDS011;3641;49.082;8.200;2024-03-22T00:44:47;15.07;;;10.25;;
7199;SDS011;3641;49.082;8.200;2024-03-22T00:47:12;19.98;;;10.55;;
7199;SDS011;3641;49.082;8.200;2024-03-22T00:49:39;20.20;;;9.77;;
7199;SDS011;3641;49.082;8.200;2024-03-22T00:52:05;18.00;;;9.75;;
7199;SDS011;3641;49.082;8.200;2024-03-22T00:54:32;18.42;;;9.73;;
7199;SDS011;3641;49.082;8.200;2024-03-22T00:56:57;14.75;;;9.85;;
7199;SDS011;3641;49.082;8.200;2024-03-22T00:59:24;13.77;;;8.70;;
7199;SDS011;3641;49.082;8.200;2024-03-22T01:01:49;17.00;;;9.20;;
7199;SDS011;3641;49.082;8.200;2024-03-22T01:04:16;15.38;;;8.80;;
7199;SDS011;3641;49.082;8.200;2024-03-22T01:06:41;15.85;;;9.73;;
7199;SDS011;3641;49.082;8.200;2024-03-22T01:09:09;16.17;;;9.98;;
7199;SDS011;3641;49.082;8.200;2024-03-22T01:11:34;15.48;;;8.90;;
7199;SDS011;3641;49.082;8.200;2024-03-22T01:14:01;14.52;;;9.20;;
7199;SDS011;3641;49.082;8.200;2024-03-22T01:16:26;17.25;;;8.85;;
7199;SDS011;3641;49.082;8.200;2024-03-22T01:18:53;17.77;;;9.10;;
7199;SDS011;3641;49.082;8.200;2024-03-22T01:21:18;15.90;;;9.10;;
7199;SDS011;3641;49.082;8.200;2024-03-22T01:23:49;15.57;;;9.20;;
7199;SDS011;3641;49.082;8.200;2024-03-22T01:26:16;13.88;;;9.05;;
7199;SDS011;3641;49.082;8.200;2024-03-22T01:28:43;15.90;;;9.45;;
7199;SDS011;3641;49.082;8.200;2024-03-22T01:31:08;18.83;;;9.80;;
7199;SDS011;3641;49.082;8.200;2024-03-22T01:33:35;17.55;;;10.13;;
7199;SDS011;3641;49.082;8.200;2024-03-22T01:36:00;20.15;;;10.85;;
7199;SDS011;3641;49.082;8.200;2024-03-22T01:38:26;15.38;;;10.23;;
7199;SDS011;3641;49.082;8.200;2024-03-22T01:40:53;17.75;;;10.18;;
7199;SDS011;3641;49.082;8.200;2024-03-22T01:43:20;15.85;;;10.23;;
7199;SDS011;3641;49.082;8.200;2024-03-22T01:45:46;18.92;;;10.07;;
7199;SDS011;3641;49.082;8.200;2024-03-22T01:48:12;18.80;;;9.70;;
7199;SDS011;3641;49.082;8.200;2024-03-22T01:50:38;17.27;;;9.95;;
7199;SDS011;3641;49.082;8.200;2024-03-22T01:53:04;19.52;;;10.55;;
7199;SDS011;3641;49.082;8.200;2024-03-22T01:55:30;16.00;;;9.98;;
7199;SDS011;3641;49.082;8.200;2024-03-22T01:57:57;15.07;;;9.50;;
7199;SDS011;3641;49.082;8.200;2024-03-22T02:00:24;19.67;;;10.90;;
7199;SDS011;3641;49.082;8.200;2024-03-22T02:02:50;20.25;;;10.80;;
7199;SDS011;3641;49.082;8.200;2024-03-22T02:05:16;19.95;;;11.15;;
7199;SDS011;3641;49.082;8.200;2024-03-22T02:07:44;20.73;;;11.70;;
7199;SDS011;3641;49.082;8.200;2024-03-22T02:10:10;18.45;;;11.07;;
7199;SDS011;3641;49.082;8.200;2024-03-22T02:12:37;18.80;;;10.50;;
7199;SDS011;3641;49.082;8.200;2024-03-22T02:15:03;17.40;;;10.63;;
7199;SDS011;3641;49.082;8.200;2024-03-22T02:17:31;15.70;;;10.45;;
7199;SDS011;3641;49.082;8.200;2024-03-22T02:19:56;18.17;;;11.25;;
7199;SDS011;3641;49.082;8.200;2024-03-22T02:22:23;23.77;;;11.02;;
7199;SDS011;3641;49.082;8.200;2024-03-22T02:24:50;15.88;;;9.93;;
7199;SDS011;3641;49.082;8.200;2024-03-22T02:27:16;15.77;;;9.88;;
7199;SDS011;3641;49.082;8.200;2024-03-22T02:29:41;15.85;;;10.10;;
7199;SDS011;3641;49.082;8.200;2024-03-22T02:32:09;16.60;;;10.60;;
7199;SDS011;3641;49.082;8.200;2024-03-22T02:34:34;18.17;;;10.70;;
7199;SDS011;3641;49.082;8.200;2024-03-22T02:37:01;16.48;;;10.38;;
7199;SDS011;3641;49.082;8.200;2024-03-22T02:39:26;16.30;;;10.52;;
7199;SDS011;3641;49.082;8.200;2024-03-22T02:41:55;16.75;;;10.68;;
7199;SDS011;3641;49.082;8.200;2024-03-22T02:44:20;15.18;;;9.30;;
7199;SDS011;3641;49.082;8.200;2024-03-22T02:46:47;16.95;;;10.13;;
7199;SDS011;3641;49.082;8.200;2024-03-22T02:49:12;19.13;;;11.23;;
7199;SDS011;3641;49.082;8.200;2024-03-22T02:51:39;17.13;;;10.30;;
7199;SDS011;3641;49.082;8.200;2024-03-22T02:54:04;16.52;;;10.50;;
7199;SDS011;3641;49.082;8.200;2024-03-22T02:56:31;15.13;;;9.40;;
7199;SDS011;3641;49.082;8.200;2024-03-22T02:58:58;20.15;;;11.30;;
7199;SDS011;3641;49.082;8.200;2024-03-22T03:01:24;17.40;;;10.23;;
7199;SDS011;3641;49.082;8.200;2024-03-22T03:03:49;13.90;;;9.90;;
7199;SDS011;3641;49.082;8.200;2024-03-22T03:06:16;18.38;;;10.75;;
7199;SDS011;3641;49.082;8.200;2024-03-22T03:08:43;16.33;;;10.05;;
7199;SDS011;3641;49.082;8.200;2024-03-22T03:11:09;17.83;;;10.90;;
7199;SDS011;3641;49.082;8.200;2024-03-22T03:13:35;17.67;;;10.00;;
7199;SDS011;3641;49.082;8.200;2024-03-22T03:16:03;14.88;;;10.02;;
7199;SDS011;3641;49.082;8.200;2024-03-22T03:18:29;17.30;;;9.30;;
7199;SDS011;3641;49.082;8.200;2024-03-22T03:20:55;15.25;;;9.02;;
7199;SDS011;3641;49.082;8.200;2024-03-22T03:23:21;15.88;;;8.90;;
7199;SDS011;3641;49.082;8.200;2024-03-22T03:25:47;13.68;;;8.48;;
7199;SDS011;3641;49.082;8.200;2024-03-22T03:28:13;15.80;;;8.60;;
7199;SDS011;3641;49.082;8.200;2024-03-22T03:30:40;14.52;;;8.43;;
7199;SDS011;3641;49.082;8.200;2024-03-22T03:33:06;16.05;;;8.85;;
7199;SDS011;3641;49.082;8.200;2024-03-22T03:35:33;16.85;;;8.32;;
7199;SDS011;3641;49.082;8.200;2024-03-22T03:37:58;16.63;;;8.32;;
7199;SDS011;3641;49.082;8.200;2024-03-22T03:40:25;13.93;;;8.25;;
7199;SDS011;3641;49.082;8.200;2024-03-22T03:42:52;13.23;;;7.97;;
7199;SDS011;3641;49.082;8.200;2024-03-22T03:45:18;15.13;;;8.02;;
7199;SDS011;3641;49.082;8.200;2024-03-22T03:47:44;13.63;;;8.02;;
7199;SDS011;3641;49.082;8.200;2024-03-22T03:50:12;11.82;;;8.13;;
7199;SDS011;3641;49.082;8.200;2024-03-22T03:52:37;12.30;;;8.63;;
7199;SDS011;3641;49.082;8.200;2024-03-22T03:55:04;14.07;;;8.27;;
7199;SDS011;3641;49.082;8.200;2024-03-22T03:57:29;15.38;;;8.18;;
7199;SDS011;3641;49.082;8.200;2024-03-22T03:59:56;12.95;;;8.60;;
7199;SDS011;3641;49.082;8.200;2024-03-22T04:02:21;14.95;;;8.52;;
7199;SDS011;3641;49.082;8.200;2024-03-22T04:04:48;13.30;;;8.30;;
7199;SDS011;3641;49.082;8.200;2024-03-22T04:07:18;15.55;;;9.50;;
7199;SDS011;3641;49.082;8.200;2024-03-22T04:09:45;14.10;;;8.88;;
7199;SDS011;3641;49.082;8.200;2024-03-22T04:12:10;16.00;;;8.10;;
7199;SDS011;3641;49.082;8.200;2024-03-22T04:14:36;15.80;;;9.00;;
7199;SDS011;3641;49.082;8.200;2024-03-22T04:17:02;18.60;;;8.68;;
7199;SDS011;3641;49.082;8.200;2024-03-22T04:19:29;13.52;;;9.10;;
7199;SDS011;3641;49.082;8.200;2024-03-22T04:21:54;13.98;;;8.27;;
7199;SDS011;3641;49.082;8.200;2024-03-22T04:24:22;13.02;;;8.25;;
7199;SDS011;3641;49.082;8.200;2024-03-22T04:26:47;15.43;;;9.10;;
7199;SDS011;3641;49.082;8.200;2024-03-22T04:29:14;14.93;;;9.07;;
7199;SDS011;3641;49.082;8.200;2024-03-22T04:31:39;16.73;;;9.50;;
7199;SDS011;3641;49.082;8.200;2024-03-22T04:34:06;16.05;;;8.45;;
7199;SDS011;3641;49.082;8.200;2024-03-22T04:36:32;15.43;;;8.05;;
7199;SDS011;3641;49.082;8.200;2024-03-22T04:38:58;14.20;;;8.40;;
7199;SDS011;3641;49.082;8.200;2024-03-22T04:41:26;15.38;;;8.95;;
7199;SDS011;3641;49.082;8.200;2024-03-22T04:43:52;17.15;;;8.20;;
7199;SDS011;3641;49.082;8.200;2024-03-22T04:46:18;13.90;;;8.40;;
7199;SDS011;3641;49.082;8.200;2024-03-22T04:48:45;12.10;;;8.45;;
7199;SDS011;3641;49.082;8.200;2024-03-22T04:51:10;15.32;;;9.20;;
7199;SDS011;3641;49.082;8.200;2024-03-22T04:53:36;13.07;;;8.88;;
7199;SDS011;3641;49.082;8.200;2024-03-22T04:56:02;13.13;;;8.55;;
7199;SDS011;3641;49.082;8.200;2024-03-22T04:58:31;18.20;;;9.10;;
7199;SDS011;3641;49.082;8.200;2024-03-22T05:00:56;14.13;;;9.00;;
7199;SDS011;3641;49.082;8.200;2024-03-22T05:03:23;19.30;;;9.98;;
7199;SDS011;3641;49.082;8.200;2024-03-22T05:05:49;17.48;;;10.38;;
7199;SDS011;3641;49.082;8.200;2024-03-22T05:08:16;21.70;;;15.15;;
7199;SDS011;3641;49.082;8.200;2024-03-22T05:10:42;20.65;;;12.15;;
7199;SDS011;3641;49.082;8.200;2024-03-22T05:13:08;18.90;;;10.23;;
7199;SDS011;3641;49.082;8.200;2024-03-22T05:15:35;17.45;;;10.88;;
7199;SDS011;3641;49.082;8.200;2024-03-22T05:18:01;16.58;;;10.30;;
7199;SDS011;3641;49.082;8.200;2024-03-22T05:20:27;18.88;;;10.07;;
7199;SDS011;3641;49.082;8.200;2024-03-22T05:22:54;18.45;;;9.35;;
7199;SDS011;3641;49.082;8.200;2024-03-22T05:25:19;16.20;;;9.45;;
7199;SDS011;3641;49.082;8.200;2024-03-22T05:27:46;16.65;;;10.10;;
7199;SDS011;3641;49.082;8.200;2024-03-22T05:30:12;17.50;;;10.05;;
7199;SDS011;3641;49.082;8.200;2024-03-22T05:32:40;20.23;;;10.18;;
7199;SDS011;3641;49.082;8.200;2024-03-22T05:35:06;19.02;;;10.57;;
7199;SDS011;3641;49.082;8.200;2024-03-22T05:37:33;15.25;;;9.60;;
7199;SDS011;3641;49.082;8.200;2024-03-22T05:39:59;18.23;;;10.32;;
7199;SDS011;3641;49.082;8.200;2024-03-22T05:42:25;21.02;;;11.05;;
7199;SDS011;3641;49.082;8.200;2024-03-22T05:44:51;16.48;;;10.70;;
7199;SDS011;3641;49.082;8.200;2024-03-22T05:47:19;18.95;;;10.50;;
7199;SDS011;3641;49.082;8.200;2024-03-22T05:49:46;18.58;;;10.77;;
7199;SDS011;3641;49.082;8.200;2024-03-22T05:52:13;18.38;;;10.82;;
7199;SDS011;3641;49.082;8.200;2024-03-22T05:54:38;17.73;;;11.32;;
7199;SDS011;3641;49.082;8.200;2024-03-22T05:57:05;15.60;;;9.95;;
7199;SDS011;3641;49.082;8.200;2024-03-22T05:59:31;18.45;;;10.63;;
7199;SDS011;3641;49.082;8.200;2024-03-22T06:01:57;17.05;;;10.00;;
7199;SDS011;3641;49.082;8.200;2024-03-22T06:04:22;16.20;;;9.75;;
7199;SDS011;3641;49.082;8.200;2024-03-22T06:06:50;19.42;;;10.85;;
7199;SDS011;3641;49.082;8.200;2024-03-22T06:09:16;18.65;;;9.88;;
7199;SDS011;3641;49.082;8.200;2024-03-22T06:11:48;17.48;;;9.88;;
7199;SDS011;3641;49.082;8.200;2024-03-22T06:14:14;19.08;;;10.73;;
7199;SDS011;3641;49.082;8.200;2024-03-22T06:16:40;18.73;;;11.15;;
7199;SDS011;3641;49.082;8.200;2024-03-22T06:19:06;20.40;;;10.43;;
7199;SDS011;3641;49.082;8.200;2024-03-22T06:21:32;20.90;;;11.80;;
7199;SDS011;3641;49.082;8.200;2024-03-22T06:23:59;20.50;;;11.18;;
7199;SDS011;3641;49.082;8.200;2024-03-22T06:26:25;21.33;;;11.52;;
7199;SDS011;3641;49.082;8.200;2024-03-22T06:28:51;17.65;;;11.38;;
7199;SDS011;3641;49.082;8.200;2024-03-22T06:31:17;16.05;;;10.45;;
7199;SDS011;3641;49.082;8.200;2024-03-22T06:33:43;17.65;;;10.60;;
7199;SDS011;3641;49.082;8.200;2024-03-22T06:36:09;21.25;;;10.80;;
7199;SDS011;3641;49.082;8.200;2024-03-22T06:38:35;16.88;;;10.65;;
7199;SDS011;3641;49.082;8.200;2024-03-22T06:41:02;19.67;;;11.48;;
7199;SDS011;3641;49.082;8.200;2024-03-22T06:43:29;20.25;;;11.55;;
7199;SDS011;3641;49.082;8.200;2024-03-22T06:45:55;17.55;;;10.77;;
7199;SDS011;3641;49.082;8.200;2024-03-22T06:48:21;18.27;;;10.48;;
7199;SDS011;3641;49.082;8.200;2024-03-22T06:50:47;17.75;;;10.77;;
7199;SDS011;3641;49.082;8.200;2024-03-22T06:53:12;17.95;;;11.30;;
7199;SDS011;3641;49.082;8.200;2024-03-22T06:55:39;22.42;;;11.60;;
7199;SDS011;3641;49.082;8.200;2024-03-22T06:58:06;23.13;;;11.55;;
7199;SDS011;3641;49.082;8.200;2024-03-22T07:00:32;20.13;;;11.25;;
7199;SDS011;3641;49.082;8.200;2024-03-22T07:02:59;20.13;;;11.35;;
7199;SDS011;3641;49.082;8.200;2024-03-22T07:05:27;19.75;;;11.45;;
7199;SDS011;3641;49.082;8.200;2024-03-22T07:07:53;17.95;;;10.90;;
7199;SDS011;3641;49.082;8.200;2024-03-22T07:10:21;19.85;;;11.38;;
7199;SDS011;3641;49.082;8.200;2024-03-22T07:12:47;18.70;;;10.00;;
7199;SDS011;3641;49.082;8.200;2024-03-22T07:15:15;17.42;;;9.80;;
7199;SDS011;3641;49.082;8.200;2024-03-22T07:17:40;14.23;;;9.80;;
7199;SDS011;3641;49.082;8.200;2024-03-22T07:20:07;17.77;;;10.02;;
7199;SDS011;3641;49.082;8.200;2024-03-22T07:22:33;14.82;;;9.93;;
7199;SDS011;3641;49.082;8.200;2024-03-22T07:24:59;19.67;;;10.57;;
7199;SDS011;3641;49.082;8.200;2024-03-22T07:27:25;14.18;;;10.05;;
7199;SDS011;3641;49.082;8.200;2024-03-22T07:29:54;12.40;;;8.98;;
7199;SDS011;3641;49.082;8.200;2024-03-22T07:32:21;15.73;;;9.57;;
7199;SDS011;3641;49.082;8.200;2024-03-22T07:34:47;13.75;;;9.68;;
7199;SDS011;3641;49.082;8.200;2024-03-22T07:37:13;11.65;;;8.30;;
7199;SDS011;3641;49.082;8.200;2024-03-22T07:39:39;15.07;;;9.30;;
7199;SDS011;3641;49.082;8.200;2024-03-22T07:42:05;16.17;;;9.15;;
7199;SDS011;3641;49.082;8.200;2024-03-22T07:44:31;13.93;;;8.68;;
7199;SDS011;3641;49.082;8.200;2024-03-22T07:46:57;14.32;;;9.02;;
7199;SDS011;3641;49.082;8.200;2024-03-22T07:49:25;14.00;;;8.77;;
7199;SDS011;3641;49.082;8.200;2024-03-22T07:51:50;13.02;;;9.18;;
7199;SDS011;3641;49.082;8.200;2024-03-22T07:54:18;19.10;;;9.65;;
7199;SDS011;3641;49.082;8.200;2024-03-22T07:56:43;18.70;;;10.18;;
7199;SDS011;3641;49.082;8.200;2024-03-22T07:59:09;16.65;;;9.40;;
7199;SDS011;3641;49.082;8.200;2024-03-22T08:01:35;14.00;;;8.63;;
7199;SDS011;3641;49.082;8.200;2024-03-22T08:04:01;14.18;;;8.70;;
7199;SDS011;3641;49.082;8.200;2024-03-22T08:06:28;15.13;;;9.77;;
7199;SDS011;3641;49.082;8.200;2024-03-22T08:08:55;16.50;;;9.57;;
7199;SDS011;3641;49.082;8.200;2024-03-22T08:11:20;17.48;;;9.25;;
7199;SDS011;3641;49.082;8.200;2024-03-22T08:13:46;13.30;;;8.25;;
7199;SDS011;3641;49.082;8.200;2024-03-22T08:16:12;13.90;;;7.85;;
7199;SDS011;3641;49.082;8.200;2024-03-22T08:18:38;16.23;;;8.52;;
7199;SDS011;3641;49.082;8.200;2024-03-22T08:21:04;11.57;;;8.02;;
7199;SDS011;3641;49.082;8.200;2024-03-22T08:23:32;13.23;;;8.77;;
7199;SDS011;3641;49.082;8.200;2024-03-22T08:25:58;11.43;;;8.38;;
7199;SDS011;3641;49.082;8.200;2024-03-22T08:28:24;14.95;;;8.60;;
7199;SDS011;3641;49.082;8.200;2024-03-22T08:30:50;15.95;;;8.30;;
7199;SDS011;3641;49.082;8.200;2024-03-22T08:33:16;13.70;;;8.18;;
7199;SDS011;3641;49.082;8.200;2024-03-22T08:35:43;13.98;;;8.57;;
7199;SDS011;3641;49.082;8.200;2024-03-22T08:38:10;16.17;;;8.85;;
7199;SDS011;3641;49.082;8.200;2024-03-22T08:40:37;12.77;;;8.40;;
7199;SDS011;3641;49.082;8.200;2024-03-22T08:43:06;13.00;;;7.78;;
7199;SDS011;3641;49.082;8.200;2024-03-22T08:45:32;14.95;;;8.63;;
7199;SDS011;3641;49.082;8.200;2024-03-22T08:47:58;14.15;;;8.25;;
7199;SDS011;3641;49.082;8.200;2024-03-22T08:50:24;12.63;;;7.95;;
7199;SDS011;3641;49.082;8.200;2024-03-22T08:52:50;12.68;;;7.82;;
7199;SDS011;3641;49.082;8.200;2024-03-22T08:55:16;12.15;;;7.95;;
7199;SDS011;3641;49.082;8.200;2024-03-22T08:57:44;12.93;;;7.82;;
7199;SDS011;3641;49.082;8.200;2024-03-22T09:00:10;13.77;;;8.82;;
7199;SDS011;3641;49.082;8.200;2024-03-22T09:02:37;15.80;;;8.82;;
7199;SDS011;3641;49.082;8.200;2024-03-22T09:05:03;16.88;;;8.93;;
7199;SDS011;3641;49.082;8.200;2024-03-22T09:07:30;14.93;;;9.32;;
7199;SDS011;3641;49.082;8.200;2024-03-22T09:09:55;18.13;;;9.50;;
7199;SDS011;3641;49.082;8.200;2024-03-22T09:12:21;13.13;;;8.88;;
7199;SDS011;3641;49.082;8.200;2024-03-22T09:14:48;14.30;;;8.57;;
7199;SDS011;3641;49.082;8.200;2024-03-22T09:17:15;14.38;;;8.90;;
7199;SDS011;3641;49.082;8.200;2024-03-22T09:19:41;15.32;;;9.13;;
7199;SDS011;3641;49.082;8.200;2024-03-22T09:22:07;15.43;;;8.68;;
7199;SDS011;3641;49.082;8.200;2024-03-22T09:24:33;14.27;;;9.38;;
7199;SDS011;3641;49.082;8.200;2024-03-22T09:26:59;16.42;;;9.45;;
7199;SDS011;3641;49.082;8.200;2024-03-22T09:29:25;14.57;;;9.35;;
7199;SDS011;3641;49.082;8.200;2024-03-22T09:31:52;16.67;;;9.57;;
7199;SDS011;3641;49.082;8.200;2024-03-22T09:34:18;13.95;;;8.98;;
7199;SDS011;3641;49.082;8.200;2024-03-22T09:36:45;14.63;;;9.05;;
7199;SDS011;3641;49.082;8.200;2024-03-22T09:39:10;16.58;;;9.57;;
7199;SDS011;3641;49.082;8.200;2024-03-22T09:41:38;16.10;;;9.40;;
7199;SDS011;3641;49.082;8.200;2024-03-22T09:44:07;15.55;;;8.93;;
7199;SDS011;3641;49.082;8.200;2024-03-22T09:46:38;16.23;;;9.35;;
7199;SDS011;3641;49.082;8.200;2024-03-22T09:49:07;15.65;;;9.20;;
7199;SDS011;3641;49.082;8.200;2024-03-22T09:51:35;17.23;;;8.63;;
7199;SDS011;3641;49.082;8.200;2024-03-22T09:54:02;13.90;;;8.45;;
7199;SDS011;3641;49.082;8.200;2024-03-22T09:56:28;13.25;;;8.02;;
7199;SDS011;3641;49.082;8.200;2024-03-22T09:58:55;16.15;;;8.23;;
7199;SDS011;3641;49.082;8.200;2024-03-22T10:01:22;15.88;;;7.90;;
7199;SDS011;3641;49.082;8.200;2024-03-22T10:03:48;15.15;;;8.65;;
7199;SDS011;3641;49.082;8.200;2024-03-22T10:06:18;12.05;;;8.15;;
7199;SDS011;3641;49.082;8.200;2024-03-22T10:08:45;13.52;;;7.60;;
7199;SDS011;3641;49.082;8.200;2024-03-22T10:11:10;16.88;;;7.75;;
7199;SDS011;3641;49.082;8.200;2024-03-22T10:13:37;13.77;;;7.70;;
7199;SDS011;3641;49.082;8.200;2024-03-22T10:16:02;16.10;;;7.88;;
7199;SDS011;3641;49.082;8.200;2024-03-22T10:18:31;15.75;;;8.80;;
7199;SDS011;3641;49.082;8.200;2024-03-22T10:21:01;14.25;;;7.97;;
7199;SDS011;3641;49.082;8.200;2024-03-22T10:23:28;12.25;;;7.40;;
7199;SDS011;3641;49.082;8.200;2024-03-22T10:25:55;12.70;;;7.18;;
7199;SDS011;3641;49.082;8.200;2024-03-22T10:28:22;14.57;;;7.28;;
7199;SDS011;3641;49.082;8.200;2024-03-22T10:30:49;14.93;;;7.65;;
7199;SDS011;3641;49.082;8.200;2024-03-22T10:33:18;12.40;;;7.13;;
7199;SDS011;3641;49.082;8.200;2024-03-22T10:35:43;13.65;;;6.88;;
7199;SDS011;3641;49.082;8.200;2024-03-22T10:38:12;14.23;;;6.88;;
7199;SDS011;3641;49.082;8.200;2024-03-22T10:40:39;10.48;;;6.60;;
7199;SDS011;3641;49.082;8.200;2024-03-22T10:43:10;12.18;;;7.15;;
7199;SDS011;3641;49.082;8.200;2024-03-22T10:45:35;14.85;;;7.18;;
7199;SDS011;3641;49.082;8.200;2024-03-22T10:48:04;14.30;;;7.00;;
7199;SDS011;3641;49.082;8.200;2024-03-22T10:50:34;11.90;;;7.35;;
7199;SDS011;3641;49.082;8.200;2024-03-22T10:53:05;11.05;;;6.90;;
7199;SDS011;3641;49.082;8.200;2024-03-22T10:55:33;13.60;;;6.97;;
7199;SDS011;3641;49.082;8.200;2024-03-22T10:58:02;11.18;;;6.13;;
7199;SDS011;3641;49.082;8.200;2024-03-22T11:00:28;11.25;;;6.25;;
7199;SDS011;3641;49.082;8.200;2024-03-22T11:02:55;10.85;;;6.10;;
7199;SDS011;3641;49.082;8.200;2024-03-22T11:05:21;11.20;;;5.78;;
7199;SDS011;3641;49.082;8.200;2024-03-22T11:07:47;10.32;;;5.97;;
7199;SDS011;3641;49.082;8.200;2024-03-22T11:10:13;12.77;;;6.13;;
7199;SDS011;3641;49.082;8.200;2024-03-22T11:12:40;12.43;;;5.70;;
7199;SDS011;3641;49.082;8.200;2024-03-22T11:15:08;10.93;;;5.40;;
7199;SDS011;3641;49.082;8.200;2024-03-22T11:17:35;9.25;;;5.28;;
7199;SDS011;3641;49.082;8.200;2024-03-22T11:20:01;11.18;;;5.68;;
7199;SDS011;3641;49.082;8.200;2024-03-22T11:22:29;9.43;;;4.65;;
7199;SDS011;3641;49.082;8.200;2024-03-22T11:24:54;9.73;;;4.60;;
7199;SDS011;3641;49.082;8.200;2024-03-22T11:27:21;8.45;;;4.80;;
7199;SDS011;3641;49.082;8.200;2024-03-22T11:29:46;7.53;;;4.50;;
7199;SDS011;3641;49.082;8.200;2024-03-22T11:32:17;8.43;;;4.18;;
7199;SDS011;3641;49.082;8.200;2024-03-22T11:34:43;8.15;;;4.32;;
7199;SDS011;3641;49.082;8.200;2024-03-22T11:37:11;8.27;;;4.20;;
7199;SDS011;3641;49.082;8.200;2024-03-22T11:39:37;6.07;;;3.72;;
7199;SDS011;3641;49.082;8.200;2024-03-22T11:42:03;7.93;;;3.97;;
7199;SDS011;3641;49.082;8.200;2024-03-22T11:44:31;5.28;;;3.08;;
7199;SDS011;3641;49.082;8.200;2024-03-22T11:46:58;5.18;;;2.92;;
7199;SDS011;3641;49.082;8.200;2024-03-22T11:49:25;6.30;;;3.60;;
7199;SDS011;3641;49.082;8.200;2024-03-22T11:51:52;9.25;;;4.35;;
7199;SDS011;3641;49.082;8.200;2024-03-22T11:54:18;7.97;;;4.07;;
7199;SDS011;3641;49.082;8.200;2024-03-22T11:56:45;7.72;;;3.35;;
7199;SDS011;3641;49.082;8.200;2024-03-22T11:59:11;6.57;;;3.58;;
7199;SDS011;3641;49.082;8.200;2024-03-22T12:01:37;7.10;;;3.60;;
7199;SDS011;3641;49.082;8.200;2024-03-22T12:04:03;6.53;;;4.07;;
7199;SDS011;3641;49.082;8.200;2024-03-22T12:06:33;7.57;;;3.60;;
7199;SDS011;3641;49.082;8.200;2024-03-22T12:08:59;6.95;;;3.55;;
7199;SDS011;3641;49.082;8.200;2024-03-22T12:11:25;8.88;;;4.40;;
7199;SDS011;3641;49.082;8.200;2024-03-22T12:13:51;8.20;;;4.32;;
7199;SDS011;3641;49.082;8.200;2024-03-22T12:16:17;5.38;;;3.55;;
7199;SDS011;3641;49.082;8.200;2024-03-22T12:18:43;7.55;;;3.35;;
7199;SDS011;3641;49.082;8.200;2024-03-22T12:21:09;8.93;;;3.80;;
7199;SDS011;3641;49.082;8.200;2024-03-22T12:23:36;5.85;;;3.40;;
7199;SDS011;3641;49.082;8.200;2024-03-22T12:26:03;5.82;;;3.35;;
7199;SDS011;3641;49.082;8.200;2024-03-22T12:28:28;8.70;;;3.85;;
7199;SDS011;3641;49.082;8.200;2024-03-22T12:30:55;7.40;;;4.05;;
7199;SDS011;3641;49.082;8.200;2024-03-22T12:33:20;8.02;;;3.80;;
7199;SDS011;3641;49.082;8.200;2024-03-22T12:35:47;8.40;;;4.13;;
7199;SDS011;3641;49.082;8.200;2024-03-22T12:38:13;6.50;;;3.90;;
7199;SDS011;3641;49.082;8.200;2024-03-22T12:40:41;8.13;;;4.30;;
7199;SDS011;3641;49.082;8.200;2024-03-22T12:43:07;6.97;;;3.85;;
7199;SDS011;3641;49.082;8.200;2024-03-22T12:45:35;9.25;;;4.18;;
7199;SDS011;3641;49.082;8.200;2024-03-22T12:48:01;7.50;;;4.13;;
7199;SDS011;3641;49.082;8.200;2024-03-22T12:50:27;6.55;;;4.07;;
7199;SDS011;3641;49.082;8.200;2024-03-22T12:52:53;8.48;;;4.80;;
7199;SDS011;3641;49.082;8.200;2024-03-22T12:55:19;9.85;;;5.00;;
7199;SDS011;3641;49.082;8.200;2024-03-22T12:57:46;13.23;;;5.95;;
7199;SDS011;3641;49.082;8.200;2024-03-22T13:00:13;9.75;;;4.72;;
7199;SDS011;3641;49.082;8.200;2024-03-22T13:02:43;9.25;;;4.18;;
7199;SDS011;3641;49.082;8.200;2024-03-22T13:05:09;6.93;;;3.97;;
7199;SDS011;3641;49.082;8.200;2024-03-22T13:07:35;7.15;;;3.55;;
7199;SDS011;3641;49.082;8.200;2024-03-22T13:10:02;8.25;;;3.88;;
7199;SDS011;3641;49.082;8.200;2024-03-22T13:12:28;6.15;;;2.97;;
7199;SDS011;3641;49.082;8.200;2024-03-22T13:14:57;8.98;;;3.78;;
7199;SDS011;3641;49.082;8.200;2024-03-22T13:17:23;8.38;;;4.25;;
7199;SDS011;3641;49.082;8.200;2024-03-22T13:19:49;6.80;;;3.53;;
7199;SDS011;3641;49.082;8.200;2024-03-22T13:22:15;8.20;;;3.80;;
7199;SDS011;3641;49.082;8.200;2024-03-22T13:24:43;5.60;;;3.30;;
7199;SDS011;3641;49.082;8.200;2024-03-22T13:27:08;6.40;;;3.67;;
7199;SDS011;3641;49.082;8.200;2024-03-22T13:29:35;6.88;;;3.80;;
7199;SDS011;3641;49.082;8.200;2024-03-22T13:32:02;6.85;;;3.65;;
7199;SDS011;3641;49.082;8.200;2024-03-22T13:34:29;10.77;;;3.70;;
7199;SDS011;3641;49.082;8.200;2024-03-22T13:36:55;5.40;;;3.17;;
7199;SDS011;3641;49.082;8.200;2024-03-22T13:39:21;6.43;;;2.97;;
7199;SDS011;3641;49.082;8.200;2024-03-22T13:41:48;6.22;;;2.90;;
7199;SDS011;3641;49.082;8.200;2024-03-22T13:44:14;7.03;;;2.85;;
7199;SDS011;3641;49.082;8.200;2024-03-22T13:46:40;7.05;;;2.95;;
7199;SDS011;3641;49.082;8.200;2024-03-22T13:51:41;7.28;;;2.95;;
7199;SDS011;3641;49.082;8.200;2024-03-22T13:54:07;9.45;;;3.30;;
7199;SDS011;3641;49.082;8.200;2024-03-22T13:56:32;4.72;;;2.60;;
7199;SDS011;3641;49.082;8.200;2024-03-22T13:58:59;4.30;;;2.60;;
7199;SDS011;3641;49.082;8.200;2024-03-22T14:01:24;6.38;;;2.47;;
7199;SDS011;3641;49.082;8.200;2024-03-22T14:03:52;5.35;;;3.10;;
7199;SDS011;3641;49.082;8.200;2024-03-22T14:06:19;7.97;;;3.72;;
7199;SDS011;3641;49.082;8.200;2024-03-22T14:08:45;9.02;;;3.10;;
7199;SDS011;3641;49.082;8.200;2024-03-22T14:11:11;5.88;;;2.90;;
7199;SDS011;3641;49.082;8.200;2024-03-22T14:13:37;6.07;;;2.90;;
7199;SDS011;3641;49.082;8.200;2024-03-22T14:16:03;7.57;;;4.35;;
7199;SDS011;3641;49.082;8.200;2024-03-22T14:18:32;7.60;;;3.90;;
7199;SDS011;3641;49.082;8.200;2024-03-22T14:20:57;6.50;;;3.40;;
7199;SDS011;3641;49.082;8.200;2024-03-22T14:23:25;8.73;;;3.30;;
7199;SDS011;3641;49.082;8.200;2024-03-22T14:25:50;5.93;;;3.03;;
7199;SDS011;3641;49.082;8.200;2024-03-22T14:28:17;6.55;;;3.63;;
7199;SDS011;3641;49.082;8.200;2024-03-22T14:30:42;6.72;;;3.47;;
7199;SDS011;3641;49.082;8.200;2024-03-22T14:33:09;6.43;;;3.20;;
7199;SDS011;3641;49.082;8.200;2024-03-22T14:35:34;7.68;;;3.75;;
7199;SDS011;3641;49.082;8.200;2024-03-22T14:38:00;6.85;;;3.63;;
7199;SDS011;3641;49.082;8.200;2024-03-22T14:40:27;10.02;;;3.92;;
7199;SDS011;3641;49.082;8.200;2024-03-22T14:42:56;8.02;;;3.72;;
7199;SDS011;3641;49.082;8.200;2024-03-22T14:45:21;8.68;;;3.83;;
7199;SDS011;3641;49.082;8.200;2024-03-22T14:47:48;8.20;;;3.72;;
7199;SDS011;3641;49.082;8.200;2024-03-22T14:50:14;6.15;;;3.45;;
7199;SDS011;3641;49.082;8.200;2024-03-22T14:52:40;7.20;;;4.20;;
7199;SDS011;3641;49.082;8.200;2024-03-22T14:55:06;7.75;;;4.00;;
7199;SDS011;3641;49.082;8.200;2024-03-22T14:57:34;6.85;;;3.67;;